Time;durP1;ratioP1;P1;durP2;ratioP2;P2;SDS_P1;SDS_P2;PMS_P1;PMS_P2;Temp;Humidity;BMP_temperature;BMP_pressure;BME280_temperature;BME280_humidity;BME280_pressure;Samples;Min_cycle;Max_cycle;Signal;HPM_P1;HPM_P2
2022/10/05 00:00:56;;;;;;;;;;;;;;;21.87;64.71;99902.72;7309420;19;129613;-38
2022/10/05 00:03:23;;;;;;;;;;;;;;;21.83;65.28;99901.38;7310702;19;130002;-37
2022/10/05 00:05:49;;;;;;;;;;;;;;;21.87;64.89;99897.50;7312623;19;129169;-37
2022/10/05 00:08:16;;;;;;;;;;;;;;;21.88;65.15;99893.94;7310044;19;130369;-38
2022/10/05 00:10:43;;;;;;;;;;;;;;;21.85;65.25;99892.41;7308909;19;129691;-37
2022/10/05 00:13:15;;;;;;;;;;;;;;;21.86;65.07;99888.84;7312662;19;130329;-38
2022/10/05 00:15:41;;;;;;;;;;;;;;;21.86;65.33;99896.69;7308675;19;130322;-37
2022/10/05 00:18:17;;;;;;;;;;;;;;;21.79;65.15;99879.84;7307751;19;129224;-37
2022/10/05 00:20:43;;;;;;;;;;;;;;;21.84;64.50;99882.91;7311065;19;130067;-37
2022/10/05 00:23:15;;;;;;;;;;;;;;;21.90;65.27;99878.91;7310843;19;129814;-38
2022/10/05 00:25:40;;;;;;;;;;;;;;;21.88;65.19;99884.28;7304504;19;131255;-37
2022/10/05 00:28:09;;;;;;;;;;;;;;;21.88;64.74;99893.94;7310489;19;129843;-38
2022/10/05 00:30:34;;;;;;;;;;;;;;;21.86;65.38;99893.25;7310314;19;129790;-38
2022/10/05 00:32:59;;;;;;;;;;;;;;;21.86;65.31;99895.84;7310644;19;130485;-37
2022/10/05 00:35:27;;;;;;;;;;;;;;;21.91;65.06;99889.22;7303957;19;129626;-38
2022/10/05 00:37:54;;;;;;;;;;;;;;;21.89;64.53;99885.94;7310255;19;130139;-37
2022/10/05 00:40:34;;;;;;;;;;;;;;;21.90;64.91;99878.91;7310109;19;129049;-37
2022/10/05 00:43:18;;;;;;;;;;;;;;;21.90;64.84;99873.66;7306153;19;130273;-37
2022/10/05 00:45:47;;;;;;;;;;;;;;;21.91;64.70;99877.97;7309322;19;129556;-37
2022/10/05 00:48:25;;;;;;;;;;;;;;;21.84;65.16;99867.19;7310200;19;131090;-37
2022/10/05 00:51:03;;;;;;;;;;;;;;;21.77;65.11;99860.84;7307931;19;128794;-38
2022/10/05 00:53:38;;;;;;;;;;;;;;;21.85;65.12;99873.25;7304899;19;130799;-38
2022/10/05 00:56:22;;;;;;;;;;;;;;;21.85;65.16;99876.69;7309202;19;130025;-37
2022/10/05 00:59:06;;;;;;;;;;;;;;;21.89;65.07;99874.63;7311650;19;130625;-38
2022/10/05 01:01:38;;;;;;;;;;;;;;;21.87;64.67;99879.19;7310291;19;129445;-38
2022/10/05 01:04:19;;;;;;;;;;;;;;;21.86;65.20;99886.22;7306408;19;129545;-37
2022/10/05 01:07:10;;;;;;;;;;;;;;;21.87;64.66;99881.78;7303462;19;129902;-38
2022/10/05 01:09:45;;;;;;;;;;;;;;;21.89;64.68;99880.72;7310214;19;129131;-38
2022/10/05 01:12:36;;;;;;;;;;;;;;;21.87;65.02;99884.41;7307696;19;129202;-38
2022/10/05 01:15:09;;;;;;;;;;;;;;;21.86;64.86;99870.53;7308361;19;129054;-38
2022/10/05 01:17:58;;;;;;;;;;;;;;;21.86;64.79;99877.53;7312766;19;129379;-38
2022/10/05 01:20:35;;;;;;;;;;;;;;;21.83;64.68;99875.19;7310003;19;129289;-38
2022/10/05 01:23:19;;;;;;;;;;;;;;;21.84;65.38;99869.81;7306574;19;129645;-37
2022/10/05 01:25:55;;;;;;;;;;;;;;;21.86;65.15;99867.91;7308564;19;129090;-38
2022/10/05 01:28:27;;;;;;;;;;;;;;;21.84;65.05;99861.97;7311096;19;129677;-37
2022/10/05 01:31:11;;;;;;;;;;;;;;;21.87;64.79;99866.94;7308073;19;129354;-37
2022/10/05 01:33:42;;;;;;;;;;;;;;;21.88;65.23;99865.16;7309661;19;129053;-38
2022/10/05 01:36:13;;;;;;;;;;;;;;;21.74;65.24;99840.16;7308447;19;129584;-37
2022/10/05 01:38:38;;;;;;;;;;;;;;;21.86;65.12;99856.59;7303508;19;131557;-37
2022/10/05 01:41:18;;;;;;;;;;;;;;;21.78;65.24;99836.31;7310165;19;129807;-37
2022/10/05 01:43:55;;;;;;;;;;;;;;;21.87;65.29;99843.38;7309201;19;129544;-37
2022/10/05 01:46:28;;;;;;;;;;;;;;;21.86;65.33;99833.88;7309074;19;130378;-37
2022/10/05 01:48:59;;;;;;;;;;;;;;;21.84;65.06;99841.03;7304157;19;130121;-37
2022/10/05 01:51:39;;;;;;;;;;;;;;;21.88;65.12;99841.59;7305819;19;129390;-38
2022/10/05 01:54:04;;;;;;;;;;;;;;;21.86;65.18;99844.34;7310731;19;128897;-37
2022/10/05 01:56:29;;;;;;;;;;;;;;;21.89;65.03;99844.06;7315355;19;129780;-38
2022/10/05 01:59:15;;;;;;;;;;;;;;;21.84;65.22;99830.56;7315612;19;133300;-38
2022/10/05 02:01:46;;;;;;;;;;;;;;;21.87;65.02;99834.69;7313369;19;130466;-38
2022/10/05 02:04:17;;;;;;;;;;;;;;;21.86;65.23;99833.88;7315668;19;129646;-37
2022/10/05 02:06:46;;;;;;;;;;;;;;;21.85;65.04;99821.72;7316559;19;129479;-38
2022/10/05 02:09:14;;;;;;;;;;;;;;;21.92;64.56;99822.00;7313607;19;131141;-37
2022/10/05 02:11:42;;;;;;;;;;;;;;;21.91;64.83;99825.59;7313833;19;130454;-38
2022/10/05 02:14:11;;;;;;;;;;;;;;;21.89;64.96;99838.84;7312264;19;129876;-37
2022/10/05 02:16:41;;;;;;;;;;;;;;;21.91;64.53;99855.22;7316297;19;129294;-37
2022/10/05 02:19:13;;;;;;;;;;;;;;;21.87;65.31;99860.84;7315021;19;129266;-37
2022/10/05 02:21:39;;;;;;;;;;;;;;;21.86;64.64;99854.81;7315994;19;130148;-38
2022/10/05 02:24:07;;;;;;;;;;;;;;;21.88;65.11;99852.88;7311847;19;129480;-38
2022/10/05 02:26:34;;;;;;;;;;;;;;;21.84;64.82;99840.19;7313322;19;129157;-37
2022/10/05 02:29:01;;;;;;;;;;;;;;;21.85;64.77;99842.66;7314445;19;129652;-37
2022/10/05 02:31:48;;;;;;;;;;;;;;;21.80;65.32;99841.41;7314693;19;129603;-38
2022/10/05 02:34:24;;;;;;;;;;;;;;;21.89;65.39;99838.00;7310966;19;130335;-37
2022/10/05 02:36:54;;;;;;;;;;;;;;;21.80;64.63;99838.78;7316251;19;130154;-38
2022/10/05 02:39:27;;;;;;;;;;;;;;;21.82;64.59;99837.72;7313967;19;131015;-37
2022/10/05 02:41:57;;;;;;;;;;;;;;;21.79;64.80;99827.50;7315446;19;129257;-38
2022/10/05 02:44:30;;;;;;;;;;;;;;;21.77;64.79;99833.84;7309136;19;131135;-37
2022/10/05 02:47:28;;;;;;;;;;;;;;;21.85;64.95;99842.66;7315782;19;129396;-37
2022/10/05 02:50:06;;;;;;;;;;;;;;;21.89;64.72;99833.59;7308294;19;129198;-37
2022/10/05 02:52:39;;;;;;;;;;;;;;;21.89;64.73;99830.13;7315158;19;129852;-37
2022/10/05 02:55:23;;;;;;;;;;;;;;;21.83;65.09;99821.03;7311640;19;130839;-38
2022/10/05 02:57:54;;;;;;;;;;;;;;;21.86;65.01;99833.88;7317207;19;129662;-38
2022/10/05 03:00:20;;;;;;;;;;;;;;;21.85;64.72;99832.19;7313379;19;130669;-38
2022/10/05 03:02:52;;;;;;;;;;;;;;;21.85;64.96;99826.97;7311364;19;129624;-38
2022/10/05 03:05:17;;;;;;;;;;;;;;;21.85;64.81;99826.97;7312478;19;129301;-35
2022/10/05 03:07:47;;;;;;;;;;;;;;;21.84;65.16;99825.31;7314864;19;128895;-38
2022/10/05 03:10:25;;;;;;;;;;;;;;;21.85;64.83;99816.50;7314335;19;129816;-38
2022/10/05 03:13:00;;;;;;;;;;;;;;;21.88;65.29;99820.66;7311728;19;129566;-38
2022/10/05 03:15:40;;;;;;;;;;;;;;;21.92;64.62;99820.22;7312161;19;129224;-38
2022/10/05 03:18:21;;;;;;;;;;;;;;;21.87;64.79;99816.34;7315239;19;129968;-37
2022/10/05 03:21:05;;;;;;;;;;;;;;;21.85;65.34;99816.50;7312303;19;129524;-38
2022/10/05 03:23:52;;;;;;;;;;;;;;;21.86;64.85;99819.94;7310758;19;129577;-38
2022/10/05 03:26:17;;;;;;;;;;;;;;;21.83;65.49;99813.19;7313830;19;129113;-38
2022/10/05 03:29:01;;;;;;;;;;;;;;;21.87;65.47;99818.97;7312890;19;129413;-37
2022/10/05 03:31:43;;;;;;;;;;;;;;;21.85;64.98;99823.50;7312887;19;130133;-38
2022/10/05 03:34:20;;;;;;;;;;;;;;;21.86;64.58;99828.63;7309655;19;130606;-38
2022/10/05 03:36:53;;;;;;;;;;;;;;;21.83;65.34;99831.50;7315469;19;129088;-38
2022/10/05 03:39:18;;;;;;;;;;;;;;;21.84;65.17;99830.56;7314473;19;129982;-38
2022/10/05 03:41:47;;;;;;;;;;;;;;;21.81;65.30;99824.75;7313301;19;129762;-39
2022/10/05 03:44:38;;;;;;;;;;;;;;;21.85;65.02;99829.59;7305016;19;129708;-38
2022/10/05 03:47:11;;;;;;;;;;;;;;;21.86;64.69;99827.81;7312415;19;129628;-38
2022/10/05 03:49:45;;;;;;;;;;;;;;;21.86;64.85;99836.50;7311872;19;128984;-38
2022/10/05 03:52:36;;;;;;;;;;;;;;;21.84;64.71;99834.97;7313696;19;129139;-38
2022/10/05 03:55:22;;;;;;;;;;;;;;;21.86;65.45;99831.25;7309799;19;129644;-38
2022/10/05 03:57:49;;;;;;;;;;;;;;;21.87;64.93;99845.16;7313446;19;130759;-37
2022/10/05 04:00:19;;;;;;;;;;;;;;;21.86;64.77;99833.88;7312760;19;129161;-38
2022/10/05 04:02:44;;;;;;;;;;;;;;;21.89;65.24;99827.53;7312227;19;130431;-38
2022/10/05 04:05:09;;;;;;;;;;;;;;;21.88;65.01;99838.97;7309691;19;129363;-35
2022/10/05 04:07:34;;;;;;;;;;;;;;;21.89;64.44;99833.59;7311992;19;128907;-38
2022/10/05 04:10:02;;;;;;;;;;;;;;;21.87;64.75;99839.91;7313277;19;129379;-38
2022/10/05 04:12:39;;;;;;;;;;;;;;;21.85;65.19;99845.28;7310450;19;130016;-38
2022/10/05 04:15:13;;;;;;;;;;;;;;;21.74;65.11;99832.28;7306781;19;130389;-38
2022/10/05 04:17:41;;;;;;;;;;;;;;;21.78;64.64;99836.31;7306453;19;129991;-38
2022/10/05 04:20:06;;;;;;;;;;;;;;;21.87;65.44;99845.97;7310586;19;129269;-38
2022/10/05 04:22:39;;;;;;;;;;;;;;;21.82;64.93;99842.09;7310547;19;130125;-38
2022/10/05 04:25:12;;;;;;;;;;;;;;;21.88;64.91;99842.41;7309533;19;130216;-38
2022/10/05 04:27:40;;;;;;;;;;;;;;;21.87;65.35;99840.75;7311381;19;129017;-38
2022/10/05 04:30:10;;;;;;;;;;;;;;;21.89;64.87;99838.00;7313578;19;129449;-36
2022/10/05 04:32:42;;;;;;;;;;;;;;;21.87;64.67;99845.97;7312118;19;130102;-38
2022/10/05 04:35:27;;;;;;;;;;;;;;;21.86;65.15;99841.72;7307603;19;129682;-38
2022/10/05 04:37:52;;;;;;;;;;;;;;;21.88;64.82;99837.16;7311870;19;129324;-38
2022/10/05 04:40:27;;;;;;;;;;;;;;;21.86;64.99;99841.72;7309534;19;130582;-38
2022/10/05 04:43:11;;;;;;;;;;;;;;;21.75;65.15;99825.28;7306717;19;129242;-38
2022/10/05 04:45:52;;;;;;;;;;;;;;;21.90;64.72;99845.72;7308785;19;130916;-38
2022/10/05 04:48:36;;;;;;;;;;;;;;;21.87;65.26;99845.97;7309813;19;129773;-38
2022/10/05 04:51:07;;;;;;;;;;;;;;;21.86;65.06;99853.97;7310623;19;130037;-38
2022/10/05 04:53:35;;;;;;;;;;;;;;;21.86;65.45;99854.81;7309821;19;129610;-38
2022/10/05 04:56:07;;;;;;;;;;;;;;;21.89;64.66;99848.47;7309432;19;129966;-38
2022/10/05 04:58:51;;;;;;;;;;;;;;;21.87;65.00;99851.22;7309047;19;129413;-38
2022/10/05 05:01:35;;;;;;;;;;;;;;;21.86;65.24;99853.97;7309655;19;129195;-37
2022/10/05 05:04:21;;;;;;;;;;;;;;;21.85;64.69;99850.53;7309047;19;130366;-38
2022/10/05 05:07:06;;;;;;;;;;;;;;;21.85;65.34;99855.75;7311500;19;131261;-38
2022/10/05 05:09:50;;;;;;;;;;;;;;;21.89;64.70;99849.31;7311004;19;129382;-38
2022/10/05 05:12:33;;;;;;;;;;;;;;;21.85;64.54;99840.06;7308207;19;129539;-38
2022/10/05 05:15:05;;;;;;;;;;;;;;;21.88;64.95;99852.88;7308105;19;129811;-38
2022/10/05 05:17:54;;;;;;;;;;;;;;;21.87;65.01;99856.47;7309853;19;130353;-38
2022/10/05 05:20:22;;;;;;;;;;;;;;;21.84;64.84;99845.44;7301655;19;130288;-37
2022/10/05 05:23:00;;;;;;;;;;;;;;;21.87;64.57;99861.69;7310236;19;130075;-37
2022/10/05 05:25:34;;;;;;;;;;;;;;;21.84;64.75;99859.34;7301809;19;132424;-38
2022/10/05 05:28:15;;;;;;;;;;;;;;;21.87;64.94;99861.69;7305005;19;129934;-37
2022/10/05 05:30:46;;;;;;;;;;;;;;;21.90;64.54;99866.66;7308141;19;129101;-38
2022/10/05 05:33:34;;;;;;;;;;;;;;;21.89;65.11;99859.78;7307778;19;129395;-37
2022/10/05 05:36:05;;;;;;;;;;;;;;;21.90;64.86;99856.19;7306269;19;129337;-38
2022/10/05 05:38:53;;;;;;;;;;;;;;;21.91;64.66;99860.44;7307823;19;129702;-37
2022/10/05 05:41:23;;;;;;;;;;;;;;;21.88;64.66;99862.53;7307811;19;129756;-37
2022/10/05 05:43:52;;;;;;;;;;;;;;;21.90;64.64;99866.66;7301458;19;130785;-37
2022/10/05 05:46:21;;;;;;;;;;;;;;;21.79;65.21;99853.69;7305007;19;130017;-37
2022/10/05 05:48:47;;;;;;;;;;;;;;;21.91;64.63;99877.97;7308589;19;130362;-37
2022/10/05 05:51:16;;;;;;;;;;;;;;;21.86;65.30;99870.53;7302957;19;129367;-38
2022/10/05 05:53:43;;;;;;;;;;;;;;;21.80;64.84;99859.72;7307043;19;129237;-37
2022/10/05 05:56:20;;;;;;;;;;;;;;;21.88;64.98;99878.22;7308177;19;129371;-38
2022/10/05 05:59:01;;;;;;;;;;;;;;;21.91;65.23;99872.72;7301055;19;130118;-38
2022/10/05 06:01:26;;;;;;;;;;;;;;;21.90;65.18;99877.13;7305752;19;130863;-38
2022/10/05 06:03:56;;;;;;;;;;;;;;;21.88;64.60;99880.84;7308771;19;130104;-37
2022/10/05 06:06:29;;;;;;;;;;;;;;;21.89;64.53;99880.72;7309316;19;130029;-38
2022/10/05 06:09:01;;;;;;;;;;;;;;;21.86;65.36;99865.28;7304091;19;130387;-37
2022/10/05 06:11:30;;;;;;;;;;;;;;;21.84;65.08;99867.19;7299524;19;129028;-37
2022/10/05 06:13:59;;;;;;;;;;;;;;;21.86;64.79;99867.91;7297629;19;130658;-37
2022/10/05 06:16:33;;;;;;;;;;;;;;;21.87;64.91;99872.16;7299577;19;129753;-37
2022/10/05 06:19:10;;;;;;;;;;;;;;;21.88;64.80;99865.94;7303170;19;131106;-37
2022/10/05 06:21:35;;;;;;;;;;;;;;;21.86;64.44;99870.53;7307717;19;129666;-37
2022/10/05 06:24:10;;;;;;;;;;;;;;;21.78;64.61;99851.22;7306770;19;129503;-38
2022/10/05 06:26:55;;;;;;;;;;;;;;;21.87;65.27;99864.31;7306930;19;130649;-38
2022/10/05 06:29:22;;;;;;;;;;;;;;;21.85;64.65;99858.38;7303802;19;132093;-37
2022/10/05 06:32:04;;;;;;;;;;;;;;;21.90;65.01;99865.81;7308381;19;129046;-38
2022/10/05 06:34:29;;;;;;;;;;;;;;;21.90;64.50;99866.66;7300967;19;129355;-38
2022/10/05 06:36:58;;;;;;;;;;;;;;;21.91;64.73;99855.22;7309597;19;131986;-37
2022/10/05 06:39:27;;;;;;;;;;;;;;;21.85;65.02;99866.22;7306057;19;129489;-38
2022/10/05 06:42:08;;;;;;;;;;;;;;;21.89;65.19;99865.00;7313158;19;129307;-37
2022/10/05 06:44:39;;;;;;;;;;;;;;;21.89;64.85;99862.38;7311800;19;131915;-37
2022/10/05 06:47:10;;;;;;;;;;;;;;;21.88;64.66;99854.69;7314893;19;129139;-38
2022/10/05 06:49:41;;;;;;;;;;;;;;;21.87;65.23;99856.47;7311882;19;129563;-37
2022/10/05 06:52:24;;;;;;;;;;;;;;;21.88;64.95;99855.47;7313341;19;128941;-38
2022/10/05 06:54:49;;;;;;;;;;;;;;;21.87;64.94;99850.38;7311303;19;129132;-37
2022/10/05 06:57:35;;;;;;;;;;;;;;;21.89;64.47;99853.69;7313627;19;130901;-38
2022/10/05 07:00:00;;;;;;;;;;;;;;;21.84;65.09;99846.25;7310526;19;131932;-38
2022/10/05 07:02:25;;;;;;;;;;;;;;;21.86;65.31;99846.97;7308834;19;129414;-38
2022/10/05 07:05:09;;;;;;;;;;;;;;;21.88;65.28;99852.06;7312299;19;129218;-37
2022/10/05 07:07:41;;;;;;;;;;;;;;;21.86;65.20;99849.56;7309365;19;131374;-37
2022/10/05 07:10:16;;;;;;;;;;;;;;;21.85;64.80;99847.06;7312309;19;129298;-37
2022/10/05 07:12:56;;;;;;;;;;;;;;;21.88;65.26;99847.63;7308926;19;131411;-37
2022/10/05 07:15:21;;;;;;;;;;;;;;;21.84;65.40;99848.88;7304796;19;129510;-38
2022/10/05 07:17:49;;;;;;;;;;;;;;;21.87;64.45;99838.13;7314659;19;129351;-37
2022/10/05 07:20:15;;;;;;;;;;;;;;;21.88;64.83;99838.97;7313656;19;129701;-37
2022/10/05 07:22:52;;;;;;;;;;;;;;;21.85;64.80;99824.34;7313097;19;129705;-38
2022/10/05 07:25:28;;;;;;;;;;;;;;;21.91;65.26;99834.25;7309217;19;130214;-38
2022/10/05 07:27:59;;;;;;;;;;;;;;;21.89;64.72;99844.06;7313782;19;129174;-37
2022/10/05 07:30:24;;;;;;;;;;;;;;;21.83;64.93;99839.34;7313207;19;129581;-38
2022/10/05 07:32:59;;;;;;;;;;;;;;;21.88;64.71;99826.69;7315748;19;128733;-37
2022/10/05 07:38:37;;;;;;;;;;;;;;;21.86;64.97;99823.41;7314607;19;129369;-37
2022/10/05 07:41:13;;;;;;;;;;;;;;;21.85;65.13;99826.97;7311702;19;129418;-38
2022/10/05 07:43:40;;;;;;;;;;;;;;;21.83;65.33;99823.66;7312645;19;130972;-37
2022/10/05 07:46:19;;;;;;;;;;;;;;;21.80;64.92;99829.16;7313062;19;129143;-38
2022/10/05 07:48:58;;;;;;;;;;;;;;;21.82;65.04;99814.16;7310835;19;130913;-38
2022/10/05 07:51:35;;;;;;;;;;;;;;;21.87;64.80;99819.81;7305981;19;130217;-38
2022/10/05 07:54:20;;;;;;;;;;;;;;;21.90;64.82;99824.78;7313197;19;129169;-38
2022/10/05 07:57:11;;;;;;;;;;;;;;;21.86;64.43;99833.03;7308405;19;129303;-37
2022/10/05 07:59:42;;;;;;;;;;;;;;;21.85;64.61;99837.44;7311659;19;130896;-37
2022/10/05 08:02:16;;;;;;;;;;;;;;;21.84;65.16;99841.03;7313156;19;130744;-38
2022/10/05 08:05:04;;;;;;;;;;;;;;;21.85;64.89;99834.81;7310465;19;129621;-37
2022/10/05 08:07:33;;;;;;;;;;;;;;;21.85;65.23;99834.81;7307981;19;131497;-38
2022/10/05 08:10:04;;;;;;;;;;;;;;;21.78;64.77;99838.94;7312320;19;129638;-38
2022/10/05 08:12:37;;;;;;;;;;;;;;;21.74;64.68;99813.97;7311476;19;130034;-37
2022/10/05 08:15:09;;;;;;;;;;;;;;;21.81;64.98;99824.75;7308570;19;131701;-37
2022/10/05 08:17:53;;;;;;;;;;;;;;;21.85;65.36;99816.50;7313587;19;129937;-38
2022/10/05 08:20:25;;;;;;;;;;;;;;;21.84;65.32;99814.00;7309908;19;131511;-37
2022/10/05 08:22:57;;;;;;;;;;;;;;;21.85;65.37;99813.88;7309601;19;130457;-38
2022/10/05 08:25:39;;;;;;;;;;;;;;;21.85;64.81;99811.25;7308335;19;128894;-37
2022/10/05 08:28:09;;;;;;;;;;;;;;;21.90;64.52;99810.84;7313757;19;129805;-37
2022/10/05 08:30:47;;;;;;;;;;;;;;;21.86;65.25;99807.69;7312535;19;129970;-37
2022/10/05 08:33:15;;;;;;;;;;;;;;;21.78;64.90;99802.28;7310124;19;130426;-37
2022/10/05 08:35:42;;;;;;;;;;;;;;;21.78;65.24;99807.53;7307067;19;129882;-38
2022/10/05 08:38:13;;;;;;;;;;;;;;;21.80;64.60;99810.84;7311359;19;129799;-38
2022/10/05 08:40:47;;;;;;;;;;;;;;;21.84;64.47;99803.53;7310910;19;129635;-38
2022/10/05 08:43:31;;;;;;;;;;;;;;;21.88;64.76;99797.91;7308210;19;129382;-37
2022/10/05 08:46:11;;;;;;;;;;;;;;;21.85;64.27;99799.94;7312487;19;130128;-38
2022/10/05 08:48:39;;;;;;;;;;;;;;;21.81;64.47;99799.44;7307412;19;130128;-37
2022/10/05 08:51:20;;;;;;;;;;;;;;;21.71;64.43;99790.69;7307803;19;130736;-37
2022/10/05 08:54:03;;;;;;;;;;;;;;;21.81;64.27;99798.59;7310350;19;129704;-38
2022/10/05 08:56:47;;;;;;;;;;;;;;;21.82;64.82;99801.06;7311888;19;130744;-37
2022/10/05 08:59:35;;;;;;;;;;;;;;;21.76;64.05;99777.19;7309628;19;128920;-38
2022/10/05 09:02:17;;;;;;;;;;;;;;;21.84;64.73;99791.28;7307814;19;130139;-38
2022/10/05 09:05:00;;;;;;;;;;;;;;;21.84;65.05;99796.53;7309414;19;130961;-37
2022/10/05 09:07:38;;;;;;;;;;;;;;;21.89;64.38;99794.34;7310178;19;128880;-37
2022/10/05 09:10:06;;;;;;;;;;;;;;;21.75;64.56;99781.59;7310400;19;129916;-37
2022/10/05 09:12:34;;;;;;;;;;;;;;;21.83;64.39;99787.00;7309928;19;130431;-37
2022/10/05 09:15:11;;;;;;;;;;;;;;;21.81;64.29;99786.34;7308416;19;130980;-37
2022/10/05 09:17:45;;;;;;;;;;;;;;;21.82;64.91;99774.91;7305245;19;130150;-38
2022/10/05 09:20:16;;;;;;;;;;;;;;;21.84;65.10;99783.44;7310638;19;129139;-37
2022/10/05 09:22:55;;;;;;;;;;;;;;;21.87;65.00;99785.78;7308813;19;130523;-37
2022/10/05 09:25:33;;;;;;;;;;;;;;;21.88;64.97;99778.78;7307676;19;130955;-37
2022/10/05 09:28:09;;;;;;;;;;;;;;;21.81;64.64;99768.03;7310489;19;129103;-37
2022/10/05 09:30:40;;;;;;;;;;;;;;;21.78;64.98;99773.50;7309523;19;130799;-37
2022/10/05 09:33:30;;;;;;;;;;;;;;;21.71;65.20;99759.31;7310148;19;130239;-37
2022/10/05 09:36:08;;;;;;;;;;;;;;;21.82;64.59;99764.44;7309091;19;129279;-38
2022/10/05 09:38:45;;;;;;;;;;;;;;;21.85;64.43;99774.63;7308899;19;129711;-38
2022/10/05 09:41:16;;;;;;;;;;;;;;;21.88;64.92;99773.53;7308862;19;129180;-37
2022/10/05 09:43:41;;;;;;;;;;;;;;;21.81;64.74;99768.03;7305301;19;129590;-38
2022/10/05 09:46:06;;;;;;;;;;;;;;;21.80;64.81;99762.88;7306298;19;129783;-38
2022/10/05 09:48:37;;;;;;;;;;;;;;;21.83;65.35;99758.22;7307077;19;129329;-39
2022/10/05 09:51:31;;;;;;;;;;;;;;;21.80;65.09;99761.13;7309412;19;130168;-38
2022/10/05 09:54:17;;;;;;;;;;;;;;;21.81;65.25;99762.78;7304056;19;129499;-38
2022/10/05 09:57:12;;;;;;;;;;;;;;;21.82;65.03;99768.81;7308971;19;131059;-38
2022/10/05 09:59:55;;;;;;;;;;;;;;;21.81;65.01;99757.56;7303448;19;130434;-38
2022/10/05 10:02:37;;;;;;;;;;;;;;;21.80;64.49;99750.66;7309469;19;129610;-38
2022/10/05 10:05:05;;;;;;;;;;;;;;;21.83;65.31;99766.06;7306190;19;130168;-38
2022/10/05 10:07:49;;;;;;;;;;;;;;;21.81;65.07;99757.56;7307208;19;129942;-38
2022/10/05 10:10:32;;;;;;;;;;;;;;;21.80;64.65;99750.66;7307651;19;129223;-38
2022/10/05 10:12:57;;;;;;;;;;;;;;;21.73;64.93;99738.22;7305982;19;129085;-38
2022/10/05 10:15:38;;;;;;;;;;;;;;;21.83;64.74;99747.75;7310547;19;130678;-38
2022/10/05 10:18:21;;;;;;;;;;;;;;;21.73;64.72;99736.41;7313941;19;129835;-38
2022/10/05 10:21:05;;;;;;;;;;;;;;;21.79;65.25;99749.00;7315346;19;130876;-38
2022/10/05 10:23:45;;;;;;;;;;;;;;;21.80;65.35;99740.19;7313651;19;129556;-38
2022/10/05 10:26:34;;;;;;;;;;;;;;;21.81;65.28;99743.63;7315489;19;129109;-38
2022/10/05 10:29:17;;;;;;;;;;;;;;;21.80;64.90;99744.56;7313794;19;129605;-38
2022/10/05 10:31:45;;;;;;;;;;;;;;;21.80;65.25;99740.19;7314587;19;129393;-39
2022/10/05 10:34:19;;;;;;;;;;;;;;;21.81;64.92;99735.78;7314155;19;130348;-38
2022/10/05 10:36:54;;;;;;;;;;;;;;;21.82;64.78;99740.88;7316957;19;129514;-37
2022/10/05 10:39:22;;;;;;;;;;;;;;;21.81;65.33;99741.00;7312520;19;130969;-37
2022/10/05 10:41:48;;;;;;;;;;;;;;;21.85;65.01;99726.66;7314567;19;130532;-38
2022/10/05 10:44:16;;;;;;;;;;;;;;;21.83;64.68;99736.47;7312038;19;129355;-37
2022/10/05 10:46:50;;;;;;;;;;;;;;;21.79;64.72;99729.84;7315436;19;129392;-37
2022/10/05 10:49:22;;;;;;;;;;;;;;;21.79;64.85;99733.31;7314192;19;129793;-38
2022/10/05 10:51:47;;;;;;;;;;;;;;;21.77;65.07;99729.16;7313821;19;129003;-37
2022/10/05 10:54:12;;;;;;;;;;;;;;;21.78;64.71;99731.63;7315037;19;129940;-38
2022/10/05 10:56:37;;;;;;;;;;;;;;;21.79;65.28;99733.31;7310894;19;132565;-37
2022/10/05 10:59:06;;;;;;;;;;;;;;;21.83;64.93;99726.81;7312531;19;130022;-38
2022/10/05 11:01:31;;;;;;;;;;;;;;;21.78;65.47;99723.78;7313629;19;129823;-38
2022/10/05 11:03:56;;;;;;;;;;;;;;;21.76;65.50;99723.13;7312061;19;129625;-37
2022/10/05 11:06:32;;;;;;;;;;;;;;;21.81;65.07;99728.75;7314959;19;129338;-37
2022/10/05 11:09:22;;;;;;;;;;;;;;;21.84;65.24;99719.78;7313909;19;129714;-38
2022/10/05 11:12:04;;;;;;;;;;;;;;;21.79;65.48;99714.97;7314149;19;129194;-37
2022/10/05 11:14:48;;;;;;;;;;;;;;;21.79;65.06;99722.84;7310110;19;129861;-37
2022/10/05 11:17:32;;;;;;;;;;;;;;;21.78;65.53;99721.16;7309420;19;130233;-38
2022/10/05 11:20:00;;;;;;;;;;;;;;;21.77;64.85;99709.06;7311783;19;130511;-37
2022/10/05 11:22:34;;;;;;;;;;;;;;;21.80;65.32;99711.38;7313905;19;128956;-38
2022/10/05 11:25:19;;;;;;;;;;;;;;;21.81;65.52;99710.44;7309351;19;129194;-38
2022/10/05 11:28:03;;;;;;;;;;;;;;;21.71;65.02;99693.88;7311979;19;129360;-37
2022/10/05 11:30:28;;;;;;;;;;;;;;;21.80;65.15;99697.47;7314609;19;129304;-37
2022/10/05 11:32:55;;;;;;;;;;;;;;;21.80;65.07;99707.94;7309955;19;129497;-37
2022/10/05 11:35:38;;;;;;;;;;;;;;;21.69;64.90;99690.56;7312973;19;129255;-37
2022/10/05 11:38:06;;;;;;;;;;;;;;;21.77;65.13;99697.75;7310822;19;131863;-38
2022/10/05 11:40:41;;;;;;;;;;;;;;;21.70;65.39;99697.44;7313508;19;130328;-38
2022/10/05 11:43:13;;;;;;;;;;;;;;;21.77;65.06;99703.81;7311744;19;129436;-37
2022/10/05 11:45:38;;;;;;;;;;;;;;;21.78;65.58;99699.41;7312252;19;130655;-37
2022/10/05 11:48:05;;;;;;;;;;;;;;;21.79;64.79;99694.03;7312629;19;130078;-38
2022/10/05 11:50:34;;;;;;;;;;;;;;;21.81;64.54;99699.13;7313670;19;129492;-37
2022/10/05 11:53:18;;;;;;;;;;;;;;;21.79;65.32;99694.03;7311760;19;129314;-37
2022/10/05 11:55:58;;;;;;;;;;;;;;;21.80;65.27;99694.84;7312591;19;129099;-38
2022/10/05 11:58:37;;;;;;;;;;;;;;;21.70;65.25;99676.50;7313475;19;129313;-38
2022/10/05 12:01:02;;;;;;;;;;;;;;;21.74;65.54;99688.38;7310954;19;129434;-38
2022/10/05 12:03:30;;;;;;;;;;;;;;;21.74;65.13;99690.16;7311247;19;129068;-38
2022/10/05 12:05:55;;;;;;;;;;;;;;;21.76;64.86;99699.56;7311332;19;129087;-38
2022/10/05 12:08:21;;;;;;;;;;;;;;;21.75;64.80;99689.19;7308774;19;130823;-38
2022/10/05 12:10:49;;;;;;;;;;;;;;;21.76;65.07;99696.94;7311654;19;129871;-38
2022/10/05 12:13:26;;;;;;;;;;;;;;;21.76;65.19;99690.84;7311637;19;130490;-37
2022/10/05 12:16:11;;;;;;;;;;;;;;;21.80;65.02;99687.84;7311298;19;130585;-38
2022/10/05 12:18:42;;;;;;;;;;;;;;;21.77;64.86;99688.13;7308215;19;130052;-37
2022/10/05 12:21:16;;;;;;;;;;;;;;;21.76;65.40;99683.84;7312008;19;129711;-38
2022/10/05 12:23:45;;;;;;;;;;;;;;;21.79;65.48;99691.44;7311561;19;130292;-38
2022/10/05 12:26:10;;;;;;;;;;;;;;;21.77;64.88;99688.13;7309945;19;129158;-38
2022/10/05 12:28:58;;;;;;;;;;;;;;;21.76;65.44;99678.63;7310463;19;129666;-37
2022/10/05 12:31:32;;;;;;;;;;;;;;;21.76;65.49;99680.38;7309495;19;129711;-37
2022/10/05 12:34:16;;;;;;;;;;;;;;;21.75;65.58;99674.31;7307977;19;129131;-37
2022/10/05 12:36:47;;;;;;;;;;;;;;;21.79;65.54;99675.72;7311256;19;129355;-38
2022/10/05 12:39:36;;;;;;;;;;;;;;;21.77;65.21;99677.66;7310274;19;129049;-38
2022/10/05 12:42:32;;;;;;;;;;;;;;;21.74;65.10;99664.81;7310536;19;131125;-38
2022/10/05 12:45:17;;;;;;;;;;;;;;;21.75;64.99;99670.88;7307516;19;129201;-37
2022/10/05 12:48:01;;;;;;;;;;;;;;;21.77;64.74;99661.94;7310423;19;129619;-38
2022/10/05 12:50:29;;;;;;;;;;;;;;;21.80;65.38;99661.66;7309065;19;130865;-37
2022/10/05 12:53:06;;;;;;;;;;;;;;;21.77;65.18;99661.09;7311372;19;129661;-38
2022/10/05 12:55:34;;;;;;;;;;;;;;;21.80;65.52;99660.81;7309389;19;129393;-37
2022/10/05 12:58:12;;;;;;;;;;;;;;;21.68;65.06;99652.25;7310218;19;129036;-37
2022/10/05 13:00:43;;;;;;;;;;;;;;;21.77;64.72;99656.72;7312168;19;129922;-37
2022/10/05 13:03:22;;;;;;;;;;;;;;;21.75;64.84;99658.59;7310272;19;130169;-38
2022/10/05 13:05:47;;;;;;;;;;;;;;;21.74;64.86;99643.88;7308759;19;129253;-37
2022/10/05 13:08:12;;;;;;;;;;;;;;;21.75;64.71;99650.75;7307620;19;130171;-38
2022/10/05 13:10:50;;;;;;;;;;;;;;;21.79;65.48;99649.56;7310882;19;130935;-38
2022/10/05 13:13:27;;;;;;;;;;;;;;;21.77;64.96;99658.50;7308037;19;130351;-37
2022/10/05 13:16:01;;;;;;;;;;;;;;;21.73;65.43;99650.06;7309015;19;130218;-37